sensor_id;sensor_type;location;lat;lon;timestamp;P1;durP1;ratioP1;P2;durP2;ratioP2
75061;SDS011;63641;46.526;24.612;2024-03-22T00:01:42;13.68;;;9.35;;
75061;SDS011;63641;46.526;24.612;2024-03-22T00:04:09;12.88;;;9.48;;
75061;SDS011;63641;46.526;24.612;2024-03-22T00:06:35;13.55;;;9.73;;
75061;SDS011;63641;46.526;24.612;2024-03-22T00:09:01;14.38;;;8.80;;
75061;SDS011;63641;46.526;24.612;2024-03-22T00:11:27;12.80;;;8.23;;
75061;SDS011;63641;46.526;24.612;2024-03-22T00:13:52;11.02;;;8.27;;
75061;SDS011;63641;46.526;24.612;2024-03-22T00:16:18;11.55;;;8.18;;
75061;SDS011;63641;46.526;24.612;2024-03-22T00:18:44;14.45;;;9.27;;
75061;SDS011;63641;46.526;24.612;2024-03-22T00:21:10;13.35;;;9.10;;
75061;SDS011;63641;46.526;24.612;2024-03-22T00:23:36;18.13;;;11.93;;
75061;SDS011;63641;46.526;24.612;2024-03-22T00:26:02;13.95;;;9.68;;
75061;SDS011;63641;46.526;24.612;2024-03-22T00:28:27;11.90;;;8.85;;
75061;SDS011;63641;46.526;24.612;2024-03-22T00:30:53;11.57;;;9.18;;
75061;SDS011;63641;46.526;24.612;2024-03-22T00:33:19;12.50;;;9.10;;
75061;SDS011;63641;46.526;24.612;2024-03-22T00:35:45;12.27;;;8.70;;
75061;SDS011;63641;46.526;24.612;2024-03-22T00:38:11;12.40;;;8.57;;
75061;SDS011;63641;46.526;24.612;2024-03-22T00:40:37;11.25;;;7.18;;
75061;SDS011;63641;46.526;24.612;2024-03-22T00:43:03;14.18;;;9.77;;
75061;SDS011;63641;46.526;24.612;2024-03-22T00:45:28;10.13;;;8.20;;
75061;SDS011;63641;46.526;24.612;2024-03-22T00:47:54;11.45;;;8.45;;
75061;SDS011;63641;46.526;24.612;2024-03-22T00:50:20;10.02;;;7.88;;
75061;SDS011;63641;46.526;24.612;2024-03-22T00:52:46;9.80;;;7.82;;
75061;SDS011;63641;46.526;24.612;2024-03-22T00:55:12;10.02;;;6.68;;
75061;SDS011;63641;46.526;24.612;2024-03-22T00:57:38;9.68;;;7.25;;
75061;SDS011;63641;46.526;24.612;2024-03-22T01:00:04;8.70;;;6.70;;
75061;SDS011;63641;46.526;24.612;2024-03-22T01:02:31;10.07;;;8.07;;
75061;SDS011;63641;46.526;24.612;2024-03-22T01:04:56;9.60;;;7.68;;
75061;SDS011;63641;46.526;24.612;2024-03-22T01:07:22;8.45;;;7.35;;
75061;SDS011;63641;46.526;24.612;2024-03-22T01:09:48;9.75;;;7.03;;
75061;SDS011;63641;46.526;24.612;2024-03-22T01:12:14;9.27;;;6.53;;
75061;SDS011;63641;46.526;24.612;2024-03-22T01:14:40;7.97;;;6.60;;
75061;SDS011;63641;46.526;24.612;2024-03-22T01:17:05;8.23;;;6.70;;
75061;SDS011;63641;46.526;24.612;2024-03-22T01:19:32;8.15;;;5.93;;
75061;SDS011;63641;46.526;24.612;2024-03-22T01:21:58;8.32;;;6.60;;
75061;SDS011;63641;46.526;24.612;2024-03-22T01:24:24;7.53;;;5.90;;
75061;SDS011;63641;46.526;24.612;2024-03-22T01:26:51;7.70;;;5.80;;
75061;SDS011;63641;46.526;24.612;2024-03-22T01:29:17;6.80;;;5.60;;
75061;SDS011;63641;46.526;24.612;2024-03-22T01:31:43;7.32;;;6.05;;
75061;SDS011;63641;46.526;24.612;2024-03-22T01:34:09;8.88;;;6.18;;
75061;SDS011;63641;46.526;24.612;2024-03-22T01:36:35;7.60;;;5.45;;
75061;SDS011;63641;46.526;24.612;2024-03-22T01:39:02;7.05;;;5.78;;
75061;SDS011;63641;46.526;24.612;2024-03-22T01:41:27;7.20;;;6.32;;
75061;SDS011;63641;46.526;24.612;2024-03-22T01:43:53;6.15;;;5.10;;
75061;SDS011;63641;46.526;24.612;2024-03-22T01:46:19;6.70;;;5.65;;
75061;SDS011;63641;46.526;24.612;2024-03-22T01:48:45;5.70;;;5.10;;
75061;SDS011;63641;46.526;24.612;2024-03-22T01:51:11;6.15;;;5.45;;
75061;SDS011;63641;46.526;24.612;2024-03-22T01:53:38;7.80;;;5.95;;
75061;SDS011;63641;46.526;24.612;2024-03-22T01:56:04;7.25;;;5.22;;
75061;SDS011;63641;46.526;24.612;2024-03-22T01:58:31;7.10;;;5.50;;
75061;SDS011;63641;46.526;24.612;2024-03-22T02:00:57;6.00;;;5.40;;
75061;SDS011;63641;46.526;24.612;2024-03-22T02:03:24;6.32;;;5.68;;
75061;SDS011;63641;46.526;24.612;2024-03-22T02:05:49;5.95;;;4.93;;
75061;SDS011;63641;46.526;24.612;2024-03-22T02:08:15;6.43;;;5.68;;
75061;SDS011;63641;46.526;24.612;2024-03-22T02:10:42;5.95;;;5.25;;
75061;SDS011;63641;46.526;24.612;2024-03-22T02:13:08;5.78;;;5.10;;
75061;SDS011;63641;46.526;24.612;2024-03-22T02:15:34;9.00;;;5.75;;
75061;SDS011;63641;46.526;24.612;2024-03-22T02:18:00;7.82;;;5.70;;
75061;SDS011;63641;46.526;24.612;2024-03-22T02:20:25;7.82;;;5.45;;
75061;SDS011;63641;46.526;24.612;2024-03-22T02:22:51;8.35;;;6.28;;
75061;SDS011;63641;46.526;24.612;2024-03-22T02:25:17;10.23;;;7.63;;
75061;SDS011;63641;46.526;24.612;2024-03-22T02:27:43;9.88;;;7.65;;
75061;SDS011;63641;46.526;24.612;2024-03-22T02:30:09;8.98;;;7.00;;
75061;SDS011;63641;46.526;24.612;2024-03-22T02:32:35;8.73;;;6.68;;
75061;SDS011;63641;46.526;24.612;2024-03-22T02:35:02;8.73;;;6.50;;
75061;SDS011;63641;46.526;24.612;2024-03-22T02:37:28;7.40;;;6.65;;
75061;SDS011;63641;46.526;24.612;2024-03-22T02:39:54;7.38;;;6.10;;
75061;SDS011;63641;46.526;24.612;2024-03-22T02:42:20;7.78;;;6.38;;
75061;SDS011;63641;46.526;24.612;2024-03-22T02:44:46;9.32;;;6.68;;
75061;SDS011;63641;46.526;24.612;2024-03-22T02:47:12;9.23;;;6.82;;
75061;SDS011;63641;46.526;24.612;2024-03-22T02:49:39;9.02;;;6.85;;
75061;SDS011;63641;46.526;24.612;2024-03-22T02:52:06;8.90;;;6.60;;
75061;SDS011;63641;46.526;24.612;2024-03-22T02:54:32;11.38;;;6.32;;
75061;SDS011;63641;46.526;24.612;2024-03-22T02:56:57;8.48;;;5.95;;
75061;SDS011;63641;46.526;24.612;2024-03-22T02:59:26;7.82;;;5.80;;
75061;SDS011;63641;46.526;24.612;2024-03-22T03:01:52;6.03;;;5.43;;
75061;SDS011;63641;46.526;24.612;2024-03-22T03:04:18;7.80;;;5.70;;
75061;SDS011;63641;46.526;24.612;2024-03-22T03:06:44;9.63;;;6.28;;
75061;SDS011;63641;46.526;24.612;2024-03-22T03:09:13;6.85;;;5.20;;
75061;SDS011;63641;46.526;24.612;2024-03-22T03:11:39;6.43;;;5.47;;
75061;SDS011;63641;46.526;24.612;2024-03-22T03:14:05;7.90;;;5.75;;
75061;SDS011;63641;46.526;24.612;2024-03-22T03:16:32;6.43;;;5.60;;
75061;SDS011;63641;46.526;24.612;2024-03-22T03:18:57;8.13;;;6.55;;
75061;SDS011;63641;46.526;24.612;2024-03-22T03:21:23;9.48;;;6.55;;
75061;SDS011;63641;46.526;24.612;2024-03-22T03:23:49;6.13;;;5.15;;
75061;SDS011;63641;46.526;24.612;2024-03-22T03:26:15;7.47;;;6.25;;
75061;SDS011;63641;46.526;24.612;2024-03-22T03:28:41;7.32;;;5.65;;
75061;SDS011;63641;46.526;24.612;2024-03-22T03:31:07;6.22;;;5.63;;
75061;SDS011;63641;46.526;24.612;2024-03-22T03:33:33;6.75;;;5.80;;
75061;SDS011;63641;46.526;24.612;2024-03-22T03:35:59;7.65;;;5.80;;
75061;SDS011;63641;46.526;24.612;2024-03-22T03:38:25;6.90;;;5.90;;
75061;SDS011;63641;46.526;24.612;2024-03-22T03:40:50;8.05;;;5.90;;
75061;SDS011;63641;46.526;24.612;2024-03-22T03:43:16;8.02;;;5.57;;
75061;SDS011;63641;46.526;24.612;2024-03-22T03:45:42;7.20;;;5.53;;
75061;SDS011;63641;46.526;24.612;2024-03-22T03:48:08;8.00;;;6.25;;
75061;SDS011;63641;46.526;24.612;2024-03-22T03:50:34;7.95;;;6.20;;
75061;SDS011;63641;46.526;24.612;2024-03-22T03:53:00;7.35;;;6.40;;
75061;SDS011;63641;46.526;24.612;2024-03-22T03:55:26;8.32;;;5.72;;
75061;SDS011;63641;46.526;24.612;2024-03-22T03:57:52;7.53;;;5.55;;
75061;SDS011;63641;46.526;24.612;2024-03-22T04:00:19;8.45;;;6.45;;
75061;SDS011;63641;46.526;24.612;2024-03-22T04:02:45;7.90;;;6.18;;
75061;SDS011;63641;46.526;24.612;2024-03-22T04:05:11;8.32;;;5.90;;
75061;SDS011;63641;46.526;24.612;2024-03-22T04:07:37;7.28;;;5.80;;
75061;SDS011;63641;46.526;24.612;2024-03-22T04:10:05;6.90;;;5.35;;
75061;SDS011;63641;46.526;24.612;2024-03-22T04:12:31;7.25;;;5.70;;
75061;SDS011;63641;46.526;24.612;2024-03-22T04:14:57;6.70;;;5.43;;
75061;SDS011;63641;46.526;24.612;2024-03-22T04:17:23;6.35;;;5.55;;
75061;SDS011;63641;46.526;24.612;2024-03-22T04:19:52;6.05;;;5.35;;
75061;SDS011;63641;46.526;24.612;2024-03-22T04:22:18;7.00;;;5.82;;
75061;SDS011;63641;46.526;24.612;2024-03-22T04:24:44;8.90;;;5.45;;
75061;SDS011;63641;46.526;24.612;2024-03-22T04:27:09;6.43;;;5.50;;
75061;SDS011;63641;46.526;24.612;2024-03-22T04:29:35;7.30;;;5.75;;
75061;SDS011;63641;46.526;24.612;2024-03-22T04:32:01;7.15;;;5.65;;
75061;SDS011;63641;46.526;24.612;2024-03-22T04:34:27;6.95;;;5.80;;
75061;SDS011;63641;46.526;24.612;2024-03-22T04:36:53;9.60;;;6.85;;
75061;SDS011;63641;46.526;24.612;2024-03-22T04:39:19;7.97;;;5.38;;
75061;SDS011;63641;46.526;24.612;2024-03-22T04:41:45;7.88;;;6.47;;
75061;SDS011;63641;46.526;24.612;2024-03-22T04:44:11;8.45;;;6.38;;
75061;SDS011;63641;46.526;24.612;2024-03-22T04:46:37;7.43;;;6.03;;
75061;SDS011;63641;46.526;24.612;2024-03-22T04:49:02;8.75;;;6.57;;
75061;SDS011;63641;46.526;24.612;2024-03-22T04:51:28;8.32;;;6.68;;
75061;SDS011;63641;46.526;24.612;2024-03-22T04:53:54;8.73;;;6.55;;
75061;SDS011;63641;46.526;24.612;2024-03-22T04:56:20;6.75;;;6.10;;
75061;SDS011;63641;46.526;24.612;2024-03-22T04:58:46;8.23;;;6.22;;
75061;SDS011;63641;46.526;24.612;2024-03-22T05:01:12;8.80;;;6.68;;
75061;SDS011;63641;46.526;24.612;2024-03-22T05:03:38;8.98;;;6.65;;
75061;SDS011;63641;46.526;24.612;2024-03-22T05:06:06;7.30;;;6.15;;
75061;SDS011;63641;46.526;24.612;2024-03-22T05:08:32;8.02;;;7.22;;
75061;SDS011;63641;46.526;24.612;2024-03-22T05:10:58;9.23;;;6.35;;
75061;SDS011;63641;46.526;24.612;2024-03-22T05:13:24;7.60;;;6.55;;
75061;SDS011;63641;46.526;24.612;2024-03-22T05:15:50;9.52;;;6.45;;
75061;SDS011;63641;46.526;24.612;2024-03-22T05:18:16;7.57;;;6.07;;
75061;SDS011;63641;46.526;24.612;2024-03-22T05:20:41;7.60;;;6.60;;
75061;SDS011;63641;46.526;24.612;2024-03-22T05:23:07;7.50;;;6.47;;
75061;SDS011;63641;46.526;24.612;2024-03-22T05:25:33;8.10;;;6.75;;
75061;SDS011;63641;46.526;24.612;2024-03-22T05:27:59;10.15;;;6.93;;
75061;SDS011;63641;46.526;24.612;2024-03-22T05:30:25;10.18;;;7.50;;
75061;SDS011;63641;46.526;24.612;2024-03-22T05:32:50;9.85;;;7.75;;
75061;SDS011;63641;46.526;24.612;2024-03-22T05:35:16;10.23;;;7.85;;
75061;SDS011;63641;46.526;24.612;2024-03-22T05:37:43;9.50;;;6.93;;
75061;SDS011;63641;46.526;24.612;2024-03-22T05:40:09;11.05;;;7.95;;
75061;SDS011;63641;46.526;24.612;2024-03-22T05:42:36;10.57;;;7.95;;
75061;SDS011;63641;46.526;24.612;2024-03-22T05:45:01;12.73;;;8.18;;
75061;SDS011;63641;46.526;24.612;2024-03-22T05:47:28;20.05;;;12.40;;
75061;SDS011;63641;46.526;24.612;2024-03-22T05:49:56;17.27;;;12.07;;
75061;SDS011;63641;46.526;24.612;2024-03-22T05:52:23;10.90;;;9.80;;
75061;SDS011;63641;46.526;24.612;2024-03-22T05:54:48;13.18;;;8.88;;
75061;SDS011;63641;46.526;24.612;2024-03-22T05:57:14;12.90;;;9.77;;
75061;SDS011;63641;46.526;24.612;2024-03-22T05:59:40;12.48;;;9.68;;
75061;SDS011;63641;46.526;24.612;2024-03-22T06:02:06;11.75;;;9.30;;
75061;SDS011;63641;46.526;24.612;2024-03-22T06:04:33;12.45;;;9.55;;
75061;SDS011;63641;46.526;24.612;2024-03-22T06:06:59;14.27;;;9.48;;
75061;SDS011;63641;46.526;24.612;2024-03-22T06:09:28;13.70;;;10.73;;
75061;SDS011;63641;46.526;24.612;2024-03-22T06:12:11;15.65;;;11.60;;
75061;SDS011;63641;46.526;24.612;2024-03-22T06:14:47;11.73;;;8.95;;
75061;SDS011;63641;46.526;24.612;2024-03-22T06:17:14;16.60;;;9.13;;
75061;SDS011;63641;46.526;24.612;2024-03-22T06:19:40;16.55;;;9.88;;
75061;SDS011;63641;46.526;24.612;2024-03-22T06:22:07;15.05;;;10.30;;
75061;SDS011;63641;46.526;24.612;2024-03-22T06:24:33;17.33;;;11.10;;
75061;SDS011;63641;46.526;24.612;2024-03-22T06:26:59;15.20;;;10.68;;
75061;SDS011;63641;46.526;24.612;2024-03-22T06:29:25;17.20;;;11.50;;
75061;SDS011;63641;46.526;24.612;2024-03-22T06:31:51;17.20;;;12.15;;
75061;SDS011;63641;46.526;24.612;2024-03-22T06:51:51;15.13;;;12.07;;
75061;SDS011;63641;46.526;24.612;2024-03-22T06:54:17;17.77;;;11.40;;
75061;SDS011;63641;46.526;24.612;2024-03-22T06:56:43;11.25;;;9.88;;
75061;SDS011;63641;46.526;24.612;2024-03-22T06:59:09;9.68;;;8.68;;
75061;SDS011;63641;46.526;24.612;2024-03-22T07:01:35;8.45;;;7.22;;
75061;SDS011;63641;46.526;24.612;2024-03-22T07:04:01;10.68;;;7.55;;
75061;SDS011;63641;46.526;24.612;2024-03-22T07:06:26;9.60;;;7.97;;
75061;SDS011;63641;46.526;24.612;2024-03-22T07:08:52;12.27;;;7.80;;
75061;SDS011;63641;46.526;24.612;2024-03-22T07:11:18;9.57;;;7.43;;
75061;SDS011;63641;46.526;24.612;2024-03-22T07:13:44;8.68;;;7.10;;
75061;SDS011;63641;46.526;24.612;2024-03-22T07:16:11;8.27;;;7.15;;
75061;SDS011;63641;46.526;24.612;2024-03-22T07:18:37;8.70;;;6.75;;
75061;SDS011;63641;46.526;24.612;2024-03-22T07:21:02;6.80;;;6.10;;
75061;SDS011;63641;46.526;24.612;2024-03-22T07:23:29;9.35;;;6.15;;
75061;SDS011;63641;46.526;24.612;2024-03-22T07:25:55;7.80;;;5.90;;
75061;SDS011;63641;46.526;24.612;2024-03-22T07:28:21;10.35;;;6.82;;
75061;SDS011;63641;46.526;24.612;2024-03-22T07:30:47;6.15;;;5.55;;
75061;SDS011;63641;46.526;24.612;2024-03-22T07:33:13;6.75;;;5.82;;
75061;SDS011;63641;46.526;24.612;2024-03-22T07:35:42;8.98;;;6.07;;
75061;SDS011;63641;46.526;24.612;2024-03-22T07:38:08;6.65;;;5.97;;
75061;SDS011;63641;46.526;24.612;2024-03-22T07:40:34;8.98;;;6.43;;
75061;SDS011;63641;46.526;24.612;2024-03-22T07:43:00;7.53;;;6.18;;
75061;SDS011;63641;46.526;24.612;2024-03-22T07:45:31;7.15;;;6.43;;
75061;SDS011;63641;46.526;24.612;2024-03-22T07:48:00;9.13;;;6.47;;
75061;SDS011;63641;46.526;24.612;2024-03-22T07:50:27;9.98;;;6.45;;
75061;SDS011;63641;46.526;24.612;2024-03-22T07:52:53;7.30;;;6.07;;
75061;SDS011;63641;46.526;24.612;2024-03-22T07:55:19;8.02;;;6.47;;
75061;SDS011;63641;46.526;24.612;2024-03-22T08:08:49;6.20;;;5.60;;
75061;SDS011;63641;46.526;24.612;2024-03-22T08:11:15;6.30;;;5.45;;
75061;SDS011;63641;46.526;24.612;2024-03-22T08:13:40;8.73;;;6.38;;
75061;SDS011;63641;46.526;24.612;2024-03-22T08:16:06;6.43;;;5.30;;
75061;SDS011;63641;46.526;24.612;2024-03-22T08:18:32;6.85;;;6.00;;
75061;SDS011;63641;46.526;24.612;2024-03-22T08:20:59;7.20;;;6.05;;
75061;SDS011;63641;46.526;24.612;2024-03-22T08:23:25;6.20;;;5.60;;
75061;SDS011;63641;46.526;24.612;2024-03-22T08:25:51;6.70;;;5.63;;
75061;SDS011;63641;46.526;24.612;2024-03-22T08:28:17;8.25;;;5.82;;
75061;SDS011;63641;46.526;24.612;2024-03-22T08:30:43;6.72;;;5.57;;
75061;SDS011;63641;46.526;24.612;2024-03-22T08:33:09;5.55;;;4.78;;
75061;SDS011;63641;46.526;24.612;2024-03-22T08:35:36;7.03;;;5.28;;
75061;SDS011;63641;46.526;24.612;2024-03-22T08:38:03;6.95;;;4.95;;
75061;SDS011;63641;46.526;24.612;2024-03-22T08:40:30;7.50;;;6.03;;
75061;SDS011;63641;46.526;24.612;2024-03-22T08:42:56;8.73;;;6.30;;
75061;SDS011;63641;46.526;24.612;2024-03-22T08:45:22;7.35;;;6.63;;
75061;SDS011;63641;46.526;24.612;2024-03-22T08:47:48;8.30;;;6.43;;
75061;SDS011;63641;46.526;24.612;2024-03-22T08:50:14;7.97;;;6.43;;
75061;SDS011;63641;46.526;24.612;2024-03-22T08:52:40;6.97;;;6.28;;
75061;SDS011;63641;46.526;24.612;2024-03-22T08:55:06;7.40;;;6.40;;
75061;SDS011;63641;46.526;24.612;2024-03-22T08:57:33;10.05;;;7.70;;
75061;SDS011;63641;46.526;24.612;2024-03-22T08:59:59;9.07;;;7.93;;
75061;SDS011;63641;46.526;24.612;2024-03-22T09:02:25;10.85;;;7.32;;
75061;SDS011;63641;46.526;24.612;2024-03-22T09:04:51;9.90;;;7.60;;
75061;SDS011;63641;46.526;24.612;2024-03-22T09:07:18;7.15;;;6.35;;
75061;SDS011;63641;46.526;24.612;2024-03-22T09:09:45;7.72;;;6.32;;
75061;SDS011;63641;46.526;24.612;2024-03-22T09:12:11;8.00;;;6.50;;
75061;SDS011;63641;46.526;24.612;2024-03-22T09:14:36;6.97;;;6.10;;
75061;SDS011;63641;46.526;24.612;2024-03-22T09:17:02;8.35;;;6.82;;
75061;SDS011;63641;46.526;24.612;2024-03-22T09:19:29;11.07;;;6.80;;
75061;SDS011;63641;46.526;24.612;2024-03-22T09:21:55;5.28;;;4.55;;
75061;SDS011;63641;46.526;24.612;2024-03-22T09:24:21;7.85;;;5.60;;
75061;SDS011;63641;46.526;24.612;2024-03-22T09:26:47;8.50;;;5.88;;
75061;SDS011;63641;46.526;24.612;2024-03-22T09:29:15;11.10;;;6.93;;
75061;SDS011;63641;46.526;24.612;2024-03-22T09:31:41;8.13;;;5.68;;
75061;SDS011;63641;46.526;24.612;2024-03-22T09:34:07;7.45;;;6.15;;
75061;SDS011;63641;46.526;24.612;2024-03-22T09:36:36;4.60;;;4.10;;
75061;SDS011;63641;46.526;24.612;2024-03-22T09:39:02;5.55;;;4.20;;
75061;SDS011;63641;46.526;24.612;2024-03-22T09:41:28;8.13;;;4.47;;
75061;SDS011;63641;46.526;24.612;2024-03-22T09:43:57;7.60;;;5.60;;
75061;SDS011;63641;46.526;24.612;2024-03-22T09:46:26;7.22;;;6.10;;
75061;SDS011;63641;46.526;24.612;2024-03-22T09:48:53;10.23;;;7.25;;
75061;SDS011;63641;46.526;24.612;2024-03-22T09:51:19;9.93;;;6.60;;
75061;SDS011;63641;46.526;24.612;2024-03-22T09:53:49;11.13;;;7.47;;
75061;SDS011;63641;46.526;24.612;2024-03-22T09:56:20;11.40;;;7.45;;
75061;SDS011;63641;46.526;24.612;2024-03-22T09:58:47;10.60;;;7.80;;
75061;SDS011;63641;46.526;24.612;2024-03-22T10:01:14;9.65;;;7.85;;
75061;SDS011;63641;46.526;24.612;2024-03-22T10:03:41;10.57;;;8.48;;
75061;SDS011;63641;46.526;24.612;2024-03-22T10:06:08;11.90;;;8.65;;
75061;SDS011;63641;46.526;24.612;2024-03-22T10:08:34;10.70;;;7.18;;
75061;SDS011;63641;46.526;24.612;2024-03-22T10:11:04;10.18;;;7.43;;
75061;SDS011;63641;46.526;24.612;2024-03-22T10:13:30;8.00;;;6.03;;
75061;SDS011;63641;46.526;24.612;2024-03-22T10:15:56;8.07;;;5.25;;
75061;SDS011;63641;46.526;24.612;2024-03-22T10:18:22;6.35;;;5.30;;
75061;SDS011;63641;46.526;24.612;2024-03-22T10:20:58;12.25;;;6.03;;
75061;SDS011;63641;46.526;24.612;2024-03-22T10:23:25;6.47;;;4.85;;
75061;SDS011;63641;46.526;24.612;2024-03-22T10:25:52;5.18;;;4.25;;
75061;SDS011;63641;46.526;24.612;2024-03-22T10:28:17;5.13;;;4.05;;
75061;SDS011;63641;46.526;24.612;2024-03-22T10:30:43;4.60;;;4.10;;
75061;SDS011;63641;46.526;24.612;2024-03-22T10:33:10;5.43;;;4.07;;
75061;SDS011;63641;46.526;24.612;2024-03-22T10:35:36;6.07;;;4.63;;
75061;SDS011;63641;46.526;24.612;2024-03-22T10:38:05;6.25;;;4.95;;
75061;SDS011;63641;46.526;24.612;2024-03-22T10:40:33;5.90;;;4.25;;
75061;SDS011;63641;46.526;24.612;2024-03-22T10:43:00;7.65;;;5.03;;
75061;SDS011;63641;46.526;24.612;2024-03-22T10:45:28;8.27;;;5.78;;
75061;SDS011;63641;46.526;24.612;2024-03-22T10:47:55;10.38;;;5.68;;
75061;SDS011;63641;46.526;24.612;2024-03-22T10:50:22;8.82;;;4.78;;
75061;SDS011;63641;46.526;24.612;2024-03-22T10:52:52;7.10;;;5.95;;
75061;SDS011;63641;46.526;24.612;2024-03-22T10:55:27;7.05;;;6.35;;
75061;SDS011;63641;46.526;24.612;2024-03-22T10:57:57;8.25;;;6.63;;
75061;SDS011;63641;46.526;24.612;2024-03-22T11:00:27;7.65;;;6.35;;
75061;SDS011;63641;46.526;24.612;2024-03-22T11:02:56;7.28;;;6.22;;
75061;SDS011;63641;46.526;24.612;2024-03-22T11:05:23;7.40;;;6.03;;
75061;SDS011;63641;46.526;24.612;2024-03-22T11:07:58;6.18;;;5.53;;
75061;SDS011;63641;46.526;24.612;2024-03-22T11:10:34;7.05;;;6.35;;
75061;SDS011;63641;46.526;24.612;2024-03-22T11:13:03;7.57;;;6.00;;
75061;SDS011;63641;46.526;24.612;2024-03-22T11:15:30;7.30;;;5.78;;
75061;SDS011;63641;46.526;24.612;2024-03-22T11:18:00;6.82;;;5.63;;
75061;SDS011;63641;46.526;24.612;2024-03-22T11:20:26;6.55;;;5.82;;
75061;SDS011;63641;46.526;24.612;2024-03-22T11:22:54;6.47;;;5.70;;
75061;SDS011;63641;46.526;24.612;2024-03-22T11:25:20;9.55;;;5.50;;
75061;SDS011;63641;46.526;24.612;2024-03-22T11:27:46;6.68;;;5.97;;
75061;SDS011;63641;46.526;24.612;2024-03-22T11:30:12;7.72;;;5.75;;
75061;SDS011;63641;46.526;24.612;2024-03-22T11:32:38;10.30;;;5.57;;
75061;SDS011;63641;46.526;24.612;2024-03-22T11:35:09;6.70;;;4.70;;
75061;SDS011;63641;46.526;24.612;2024-03-22T11:37:37;6.68;;;5.10;;
75061;SDS011;63641;46.526;24.612;2024-03-22T11:40:10;8.40;;;5.40;;
75061;SDS011;63641;46.526;24.612;2024-03-22T11:42:41;5.80;;;4.68;;
75061;SDS011;63641;46.526;24.612;2024-03-22T11:45:08;7.85;;;5.55;;
75061;SDS011;63641;46.526;24.612;2024-03-22T11:47:36;5.85;;;5.07;;
75061;SDS011;63641;46.526;24.612;2024-03-22T11:50:02;9.30;;;5.88;;
75061;SDS011;63641;46.526;24.612;2024-03-22T11:52:29;6.28;;;5.13;;
75061;SDS011;63641;46.526;24.612;2024-03-22T11:54:55;8.80;;;5.80;;
75061;SDS011;63641;46.526;24.612;2024-03-22T11:57:22;6.78;;;5.28;;
75061;SDS011;63641;46.526;24.612;2024-03-22T11:59:50;5.20;;;4.70;;
75061;SDS011;63641;46.526;24.612;2024-03-22T12:02:16;5.95;;;4.72;;
75061;SDS011;63641;46.526;24.612;2024-03-22T12:04:42;6.38;;;5.22;;
75061;SDS011;63641;46.526;24.612;2024-03-22T12:07:12;6.60;;;4.28;;
75061;SDS011;63641;46.526;24.612;2024-03-22T12:09:40;7.57;;;4.68;;
75061;SDS011;63641;46.526;24.612;2024-03-22T12:12:07;6.63;;;4.90;;
75061;SDS011;63641;46.526;24.612;2024-03-22T12:14:35;6.90;;;4.47;;
75061;SDS011;63641;46.526;24.612;2024-03-22T12:17:04;5.00;;;4.25;;
75061;SDS011;63641;46.526;24.612;2024-03-22T12:19:31;5.43;;;4.47;;
75061;SDS011;63641;46.526;24.612;2024-03-22T12:21:57;5.15;;;4.22;;
75061;SDS011;63641;46.526;24.612;2024-03-22T12:24:23;6.30;;;4.50;;
75061;SDS011;63641;46.526;24.612;2024-03-22T12:26:50;5.32;;;4.78;;
75061;SDS011;63641;46.526;24.612;2024-03-22T12:29:16;5.60;;;4.78;;
75061;SDS011;63641;46.526;24.612;2024-03-22T12:31:42;6.97;;;4.57;;
75061;SDS011;63641;46.526;24.612;2024-03-22T12:34:09;5.38;;;4.40;;
75061;SDS011;63641;46.526;24.612;2024-03-22T12:36:35;4.97;;;4.47;;
75061;SDS011;63641;46.526;24.612;2024-03-22T12:39:00;6.68;;;5.35;;
75061;SDS011;63641;46.526;24.612;2024-03-22T12:41:29;5.32;;;4.22;;
75061;SDS011;63641;46.526;24.612;2024-03-22T12:43:56;7.90;;;4.88;;
75061;SDS011;63641;46.526;24.612;2024-03-22T12:46:22;7.45;;;4.70;;
75061;SDS011;63641;46.526;24.612;2024-03-22T12:48:48;5.20;;;4.70;;
75061;SDS011;63641;46.526;24.612;2024-03-22T12:51:15;6.38;;;5.00;;
75061;SDS011;63641;46.526;24.612;2024-03-22T12:53:41;6.20;;;4.93;;
75061;SDS011;63641;46.526;24.612;2024-03-22T12:56:07;5.55;;;4.45;;
75061;SDS011;63641;46.526;24.612;2024-03-22T12:58:33;5.53;;;4.70;;
75061;SDS011;63641;46.526;24.612;2024-03-22T13:00:59;8.65;;;5.10;;
75061;SDS011;63641;46.526;24.612;2024-03-22T13:03:26;5.95;;;4.90;;
75061;SDS011;63641;46.526;24.612;2024-03-22T13:05:53;5.85;;;4.35;;
75061;SDS011;63641;46.526;24.612;2024-03-22T13:08:19;6.18;;;4.70;;
75061;SDS011;63641;46.526;24.612;2024-03-22T13:10:45;7.47;;;4.65;;
75061;SDS011;63641;46.526;24.612;2024-03-22T13:13:12;5.65;;;5.05;;
75061;SDS011;63641;46.526;24.612;2024-03-22T13:15:41;5.70;;;4.65;;
75061;SDS011;63641;46.526;24.612;2024-03-22T13:18:07;6.43;;;5.05;;
75061;SDS011;63641;46.526;24.612;2024-03-22T13:20:37;6.25;;;4.82;;
75061;SDS011;63641;46.526;24.612;2024-03-22T13:23:04;5.88;;;4.60;;
75061;SDS011;63641;46.526;24.612;2024-03-22T13:25:30;5.43;;;4.63;;
75061;SDS011;63641;46.526;24.612;2024-03-22T13:27:56;6.13;;;5.20;;
75061;SDS011;63641;46.526;24.612;2024-03-22T13:30:22;4.88;;;4.30;;
75061;SDS011;63641;46.526;24.612;2024-03-22T13:32:48;5.57;;;4.32;;
75061;SDS011;63641;46.526;24.612;2024-03-22T13:35:14;5.55;;;4.38;;
75061;SDS011;63641;46.526;24.612;2024-03-22T13:37:40;5.00;;;4.10;;
75061;SDS011;63641;46.526;24.612;2024-03-22T13:40:06;5.82;;;4.35;;
75061;SDS011;63641;46.526;24.612;2024-03-22T13:42:33;5.15;;;4.05;;
75061;SDS011;63641;46.526;24.612;2024-03-22T13:44:59;6.07;;;4.72;;
75061;SDS011;63641;46.526;24.612;2024-03-22T13:47:25;5.22;;;4.65;;
75061;SDS011;63641;46.526;24.612;2024-03-22T13:49:53;5.50;;;4.20;;
75061;SDS011;63641;46.526;24.612;2024-03-22T13:52:19;5.75;;;4.10;;
75061;SDS011;63641;46.526;24.612;2024-03-22T13:54:46;6.30;;;4.43;;
75061;SDS011;63641;46.526;24.612;2024-03-22T13:57:12;6.75;;;5.38;;
75061;SDS011;63641;46.526;24.612;2024-03-22T13:59:38;5.65;;;4.50;;
75061;SDS011;63641;46.526;24.612;2024-03-22T14:02:05;6.10;;;4.82;;
75061;SDS011;63641;46.526;24.612;2024-03-22T14:04:32;5.93;;;4.75;;
75061;SDS011;63641;46.526;24.612;2024-03-22T14:06:57;5.05;;;4.22;;
75061;SDS011;63641;46.526;24.612;2024-03-22T14:09:23;6.85;;;4.93;;
75061;SDS011;63641;46.526;24.612;2024-03-22T14:11:51;7.20;;;5.18;;
75061;SDS011;63641;46.526;24.612;2024-03-22T14:14:17;5.95;;;4.38;;
75061;SDS011;63641;46.526;24.612;2024-03-22T14:16:43;6.43;;;4.68;;
75061;SDS011;63641;46.526;24.612;2024-03-22T14:19:08;6.13;;;4.70;;
75061;SDS011;63641;46.526;24.612;2024-03-22T14:21:34;5.47;;;4.90;;
75061;SDS011;63641;46.526;24.612;2024-03-22T14:24:00;5.22;;;4.72;;
75061;SDS011;63641;46.526;24.612;2024-03-22T14:26:26;6.07;;;4.97;;
75061;SDS011;63641;46.526;24.612;2024-03-22T14:28:52;8.50;;;5.72;;
75061;SDS011;63641;46.526;24.612;2024-03-22T14:31:18;5.40;;;4.25;;
75061;SDS011;63641;46.526;24.612;2024-03-22T14:33:45;4.75;;;4.20;;
75061;SDS011;63641;46.526;24.612;2024-03-22T14:36:11;6.13;;;4.68;;
75061;SDS011;63641;46.526;24.612;2024-03-22T14:38:38;5.70;;;4.70;;
75061;SDS011;63641;46.526;24.612;2024-03-22T14:41:04;6.35;;;5.30;;
75061;SDS011;63641;46.526;24.612;2024-03-22T14:43:31;5.60;;;4.40;;
75061;SDS011;63641;46.526;24.612;2024-03-22T14:46:00;6.68;;;4.68;;
75061;SDS011;63641;46.526;24.612;2024-03-22T14:48:28;6.18;;;4.30;;
75061;SDS011;63641;46.526;24.612;2024-03-22T14:50:54;4.53;;;3.60;;
75061;SDS011;63641;46.526;24.612;2024-03-22T14:53:20;5.40;;;4.03;;
75061;SDS011;63641;46.526;24.612;2024-03-22T14:55:53;4.85;;;3.70;;